Time;durP1;ratioP1;P1;durP2;ratioP2;P2;SDS_P1;SDS_P2;PMS_P1;PMS_P2;Temp;Humidity;BMP_temperature;BMP_pressure;BME280_temperature;BME280_humidity;BME280_pressure;Samples;Min_cycle;Max_cycle;Signal;HPM_P1;HPM_P2
2023/03/07 00:00:50;;;;;;;11.63;6.72;;;3.60;99.90;;;;;;5156597;27;20498;-85
2023/03/07 00:03:16;;;;;;;12.75;7.25;;;3.60;99.90;;;;;;5138320;27;20070;-86
2023/03/07 00:05:43;;;;;;;15.77;7.47;;;3.60;99.90;;;;;;5156741;27;20085;-85
2023/03/07 00:08:09;;;;;;;13.23;7.53;;;3.60;99.90;;;;;;5121383;27;20089;-85
2023/03/07 00:10:35;;;;;;;11.63;7.40;;;3.60;99.90;;;;;;5138172;27;20035;-85
2023/03/07 00:13:01;;;;;;;10.88;6.35;;;3.70;99.90;;;;;;5121179;27;20038;-85
2023/03/07 00:15:26;;;;;;;12.40;6.70;;;3.60;99.90;;;;;;5138215;27;20087;-86
2023/03/07 00:17:52;;;;;;;9.68;5.88;;;3.70;99.90;;;;;;5138177;27;20046;-87
2023/03/07 00:20:17;;;;;;;8.82;5.18;;;3.70;99.90;;;;;;5121015;27;20490;-86
2023/03/07 00:22:45;;;;;;;9.07;4.57;;;3.70;99.90;;;;;;5120495;27;20039;-86
2023/03/07 00:25:12;;;;;;;7.78;4.38;;;3.70;99.90;;;;;;5137969;27;20358;-85
2023/03/07 00:27:37;;;;;;;8.35;4.13;;;3.60;99.90;;;;;;5156338;27;20042;-86
2023/03/07 00:30:04;;;;;;;5.07;3.70;;;3.60;99.90;;;;;;5120809;27;20527;-86
2023/03/07 00:32:30;;;;;;;7.80;3.63;;;3.60;99.90;;;;;;5138098;27;20053;-86
2023/03/07 00:34:58;;;;;;;4.83;3.13;;;3.60;99.90;;;;;;5156588;27;20145;-86
2023/03/07 00:37:24;;;;;;;5.38;3.17;;;3.60;99.90;;;;;;5138119;27;20082;-85
2023/03/07 00:39:50;;;;;;;4.78;3.10;;;3.60;99.90;;;;;;5137813;27;20088;-86
2023/03/07 00:42:16;;;;;;;5.25;3.28;;;3.60;99.90;;;;;;5137530;27;20039;-86
2023/03/07 00:44:41;;;;;;;5.82;3.10;;;3.60;99.90;;;;;;5137723;27;20394;-86
2023/03/07 00:47:07;;;;;;;5.05;3.55;;;3.60;99.90;;;;;;5137578;27;20087;-87
2023/03/07 00:49:33;;;;;;;5.65;3.83;;;3.60;99.90;;;;;;5155640;27;20490;-86
2023/03/07 00:51:59;;;;;;;5.53;3.65;;;3.60;99.90;;;;;;5155721;27;20084;-86
2023/03/07 00:54:25;;;;;;;5.50;3.20;;;3.60;99.90;;;;;;5155851;27;20057;-85
2023/03/07 00:56:50;;;;;;;6.65;3.03;;;3.60;99.90;;;;;;5137627;27;20474;-85
2023/03/07 00:59:16;;;;;;;3.60;2.33;;;3.60;99.90;;;;;;5137261;27;20495;-83
2023/03/07 01:01:42;;;;;;;3.08;2.20;;;3.60;99.90;;;;;;5137900;27;20035;-85
2023/03/07 01:04:08;;;;;;;4.45;2.05;;;3.60;99.90;;;;;;5155960;27;20086;-84
2023/03/07 01:06:34;;;;;;;2.13;1.50;;;3.60;99.90;;;;;;5137537;27;20039;-84
2023/03/07 01:09:03;;;;;;;3.95;1.80;;;3.60;99.90;;;;;;5137667;27;20288;-85
2023/03/07 01:11:30;;;;;;;3.05;2.00;;;3.50;99.90;;;;;;5137481;27;20047;-84
2023/03/07 01:13:57;;;;;;;2.25;1.65;;;3.60;99.90;;;;;;5155726;27;20049;-86
2023/03/07 01:16:26;;;;;;;2.97;1.80;;;3.60;99.90;;;;;;5120131;27;20060;-84
2023/03/07 01:18:55;;;;;;;3.03;1.90;;;3.60;99.90;;;;;;5120356;27;20371;-84
2023/03/07 01:21:27;;;;;;;2.90;1.83;;;3.60;99.90;;;;;;5120130;27;20053;-84
2023/03/07 01:23:53;;;;;;;2.95;1.92;;;3.80;99.90;;;;;;5136837;27;20446;-84
2023/03/07 01:26:21;;;;;;;2.95;1.90;;;3.50;99.90;;;;;;5136970;27;20126;-84
2023/03/07 01:28:49;;;;;;;4.20;2.25;;;3.50;99.90;;;;;;5119957;27;20042;-85
2023/03/07 01:31:15;;;;;;;5.15;2.03;;;3.60;99.90;;;;;;5119766;27;20042;-84
2023/03/07 01:33:41;;;;;;;3.08;2.15;;;3.50;99.90;;;;;;5156572;27;20045;-84
2023/03/07 01:36:29;;;;;;;2.53;1.90;;;3.50;99.90;;;;;;5124039;27;20043;-84
2023/03/07 01:39:01;;;;;;;4.20;1.98;;;3.50;99.90;;;;;;5141329;27;20043;-84
2023/03/07 01:41:31;;;;;;;3.72;1.90;;;3.50;99.90;;;;;;5124217;27;20550;-84
2023/03/07 01:44:01;;;;;;;4.40;2.00;;;3.50;99.90;;;;;;5141159;27;20050;-85
2023/03/07 01:46:30;;;;;;;2.53;1.90;;;3.50;99.90;;;;;;5141714;27;20047;-85
2023/03/07 01:49:06;;;;;;;4.55;1.70;;;3.50;99.90;;;;;;5159412;27;20092;-84
2023/03/07 01:51:33;;;;;;;3.25;2.20;;;3.50;99.90;;;;;;5141205;27;20370;-84
2023/03/07 01:54:00;;;;;;;3.20;2.05;;;3.50;99.90;;;;;;5141112;27;20050;-85
2023/03/07 01:56:27;;;;;;;11.15;2.20;;;3.50;99.90;;;;;;5140852;27;20068;-84
2023/03/07 01:58:54;;;;;;;2.87;1.90;;;3.50;99.90;;;;;;5159508;27;20043;-83
2023/03/07 02:01:21;;;;;;;;;;;3.40;99.90;;;;;;5124213;27;20046;-84
2023/03/07 02:04:08;;;;;;;4.43;2.17;;;3.40;99.90;;;;;;5123881;27;19919;-84
2023/03/07 02:06:37;;;;;;;4.67;1.93;;;3.40;99.90;;;;;;5160519;27;20065;-83
2023/03/07 02:09:11;;;;;;;3.33;2.00;;;3.30;99.90;;;;;;5146733;27;20096;-83
2023/03/07 02:11:38;;;;;;;3.05;1.77;;;3.30;99.90;;;;;;5144779;27;20535;-83
2023/03/07 02:14:04;;;;;;;2.30;1.42;;;3.30;99.90;;;;;;5161949;27;20038;-83
2023/03/07 02:16:30;;;;;;;1.98;1.45;;;3.20;99.90;;;;;;5161980;27;20111;-83
2023/03/07 02:18:56;;;;;;;2.27;1.50;;;3.10;99.90;;;;;;5159039;27;20050;-84
2023/03/07 02:21:27;;;;;;;5.00;1.80;;;3.80;99.90;;;;;;5159115;27;20034;-83
2023/03/07 02:24:21;;;;;;;2.55;1.63;;;3.00;99.90;;;;;;5139948;27;20513;-83
2023/03/07 02:26:49;;;;;;;3.05;1.67;;;3.00;99.90;;;;;;5140307;27;20087;-84
2023/03/07 02:29:15;;;;;;;3.50;1.63;;;3.00;99.90;;;;;;5123162;27;20050;-84
2023/03/07 02:31:41;;;;;;;2.10;1.60;;;2.90;99.90;;;;;;5140553;27;20141;-83
2023/03/07 02:34:18;;;;;;;3.72;1.98;;;2.80;99.90;;;;;;5140541;27;20521;-84
2023/03/07 02:36:44;;;;;;;2.53;1.63;;;2.80;99.90;;;;;;5158919;27;20046;-84
2023/03/07 02:39:10;;;;;;;5.03;2.00;;;2.80;99.90;;;;;;5158529;27;20093;-83
2023/03/07 02:41:38;;;;;;;3.55;1.70;;;2.80;99.90;;;;;;5140279;27;20053;-83
2023/03/07 02:44:04;;;;;;;;;;;2.70;99.90;;;;;;5158838;27;20035;-83
2023/03/07 02:46:29;;;;;;;2.80;1.70;;;2.70;99.90;;;;;;5139858;27;19962;-83
2023/03/07 02:48:55;;;;;;;3.53;2.10;;;2.80;99.90;;;;;;5140310;27;20089;-83
2023/03/07 02:51:21;;;;;;;6.78;2.10;;;2.60;99.90;;;;;;5158145;27;20043;-83
2023/03/07 02:53:46;;;;;;;3.67;2.03;;;2.60;99.90;;;;;;5122540;27;20063;-83
2023/03/07 02:56:12;;;;;;;5.80;2.42;;;2.60;99.90;;;;;;5158101;27;20047;-83
2023/03/07 02:58:39;;;;;;;5.18;2.00;;;2.50;99.90;;;;;;5105895;27;21000;-83
2023/03/07 03:01:05;;;;;;;5.20;2.10;;;2.50;99.90;;;;;;5157958;27;20154;-83
2023/03/07 03:03:30;;;;;;;5.50;2.10;;;2.50;99.90;;;;;;5139476;27;20501;-83
2023/03/07 03:05:56;;;;;;;3.25;2.00;;;2.40;99.90;;;;;;5139673;27;20049;-83
2023/03/07 03:08:22;;;;;;;5.93;2.20;;;3.10;99.90;;;;;;5157928;27;20213;-83
2023/03/07 03:10:54;;;;;;;5.50;1.80;;;2.40;99.90;;;;;;5139562;27;20074;-83
2023/03/07 03:13:21;;;;;;;5.75;2.10;;;2.40;99.90;;;;;;5139301;27;20421;-84
2023/03/07 03:15:46;;;;;;;7.65;2.33;;;3.60;99.90;;;;;;5139622;27;20042;-83
2023/03/07 03:18:12;;;;;;;5.13;2.00;;;2.40;99.90;;;;;;5122296;27;20489;-83
2023/03/07 03:20:39;;;;;;;3.67;1.60;;;2.40;99.90;;;;;;5122348;27;20049;-83
2023/03/07 03:23:05;;;;;;;4.28;1.80;;;2.40;99.90;;;;;;5139008;27;20370;-83
2023/03/07 03:25:30;;;;;;;7.75;2.08;;;2.40;99.90;;;;;;5139230;27;20068;-83
2023/03/07 03:27:56;;;;;;;6.28;2.03;;;2.60;99.90;;;;;;5139198;27;20096;-83
2023/03/07 03:30:22;;;;;;;8.93;2.00;;;2.80;99.90;;;;;;5139025;27;20087;-83
2023/03/07 03:32:47;;;;;;;4.72;2.00;;;2.40;99.90;;;;;;5138986;27;20088;-84
2023/03/07 03:35:13;;;;;;;10.02;1.95;;;2.40;99.90;;;;;;5157346;27;20039;-84
2023/03/07 03:37:39;;;;;;;5.97;1.70;;;2.40;99.90;;;;;;5138762;27;20042;-83
2023/03/07 03:40:12;;;;;;;4.72;1.45;;;2.40;99.90;;;;;;5122069;27;20095;-83
2023/03/07 03:42:40;;;;;;;4.10;1.58;;;2.40;99.90;;;;;;5138889;27;20474;-83
2023/03/07 03:45:07;;;;;;;9.73;2.25;;;2.40;99.90;;;;;;5138559;27;20039;-83
2023/03/07 03:47:32;;;;;;;7.15;1.70;;;2.40;99.90;;;;;;5121719;27;20042;-83
2023/03/07 03:49:58;;;;;;;4.63;1.83;;;2.40;99.90;;;;;;5156861;27;20046;-83
2023/03/07 03:52:23;;;;;;;5.18;2.28;;;2.30;99.90;;;;;;5157031;27;20042;-84
2023/03/07 03:54:49;;;;;;;7.38;1.92;;;2.30;99.90;;;;;;5156648;27;20253;-83
2023/03/07 03:57:16;;;;;;;5.03;1.70;;;2.30;99.90;;;;;;5138276;27;20038;-84
2023/03/07 03:59:42;;;;;;;4.15;1.80;;;2.40;99.90;;;;;;5138336;27;20058;-83
2023/03/07 04:02:08;;;;;;;6.70;1.95;;;2.30;99.90;;;;;;5156714;27;20168;-83
2023/03/07 04:04:34;;;;;;;6.20;1.67;;;2.30;99.90;;;;;;5138338;27;20497;-83
2023/03/07 04:07:00;;;;;;;9.90;2.08;;;2.30;99.90;;;;;;5156712;27;20414;-84
2023/03/07 04:09:25;;;;;;;7.30;2.70;;;2.40;99.90;;;;;;5156592;27;20042;-83
2023/03/07 04:11:51;;;;;;;6.40;1.85;;;2.40;99.90;;;;;;5139098;27;20038;-83
2023/03/07 04:14:17;;;;;;;8.52;2.17;;;2.40;99.90;;;;;;5138388;27;20122;-83
2023/03/07 04:16:42;;;;;;;6.28;2.55;;;2.50;99.90;;;;;;5121278;27;20039;-84
2023/03/07 04:19:11;;;;;;;10.40;1.98;;;2.50;99.90;;;;;;5121089;27;20069;-83
2023/03/07 04:21:39;;;;;;;6.57;2.10;;;2.50;99.90;;;;;;5156344;27;20043;-83
2023/03/07 04:24:05;;;;;;;6.28;1.90;;;2.60;99.90;;;;;;5156280;27;20045;-83
2023/03/07 04:26:31;;;;;;;7.13;1.80;;;2.60;99.90;;;;;;5156262;27;20466;-83
2023/03/07 04:28:57;;;;;;;7.35;1.95;;;2.60;99.90;;;;;;5137851;27;20088;-83
2023/03/07 04:31:25;;;;;;;8.07;2.38;;;2.60;99.90;;;;;;5138591;27;20046;-83
2023/03/07 04:33:51;;;;;;;10.35;2.00;;;2.60;99.90;;;;;;5138919;27;20045;-83
2023/03/07 04:36:17;;;;;;;8.65;2.03;;;2.60;99.90;;;;;;5157071;27;20390;-83
2023/03/07 04:38:44;;;;;;;8.02;1.88;;;2.60;99.90;;;;;;5157049;27;20050;-83
2023/03/07 04:41:13;;;;;;;14.23;2.05;;;2.60;99.90;;;;;;5157791;27;20501;-84
2023/03/07 04:43:39;;;;;;;9.07;2.00;;;2.60;99.90;;;;;;5139580;27;20381;-83
2023/03/07 04:46:05;;;;;;;8.35;1.80;;;2.60;99.90;;;;;;5137823;27;20133;-83
2023/03/07 04:48:30;;;;;;;4.45;1.70;;;2.80;99.90;;;;;;5155868;27;20504;-83
2023/03/07 04:50:56;;;;;;;9.85;2.60;;;2.60;99.90;;;;;;5120030;27;20058;-83
2023/03/07 04:53:22;;;;;;;8.75;1.67;;;2.90;99.90;;;;;;5137496;27;20038;-82
2023/03/07 04:55:47;;;;;;;6.88;1.75;;;2.60;99.90;;;;;;5137229;27;20050;-83
2023/03/07 04:58:13;;;;;;;5.60;2.03;;;2.60;99.90;;;;;;5137589;27;20099;-83
2023/03/07 05:00:43;;;;;;;6.97;1.90;;;2.60;99.90;;;;;;5137017;27;20049;-83
2023/03/07 05:03:10;;;;;;;4.68;1.50;;;2.60;99.90;;;;;;5155481;27;20038;-83
2023/03/07 05:05:36;;;;;;;10.23;2.35;;;2.50;99.90;;;;;;5137515;27;20042;-83
2023/03/07 05:08:03;;;;;;;7.25;1.92;;;2.50;99.90;;;;;;5119351;27;20043;-83
2023/03/07 05:10:30;;;;;;;3.75;1.40;;;2.50;99.90;;;;;;5155425;27;20035;-82
2023/03/07 05:12:55;;;;;;;6.60;2.00;;;2.50;99.90;;;;;;5137338;27;20047;-82
2023/03/07 05:15:21;;;;;;;8.57;2.08;;;2.50;99.90;;;;;;5155489;27;20393;-82
2023/03/07 05:17:47;;;;;;;6.03;1.60;;;2.50;99.90;;;;;;5155565;27;20103;-83
2023/03/07 05:20:13;;;;;;;6.65;2.22;;;2.50;99.90;;;;;;5136772;27;20419;-82
2023/03/07 05:22:38;;;;;;;8.63;2.15;;;2.80;99.90;;;;;;5136881;27;20126;-83
2023/03/07 05:25:04;;;;;;;8.52;2.25;;;2.60;99.90;;;;;;5155257;27;20095;-82
2023/03/07 05:27:30;;;;;;;7.70;1.77;;;2.50;99.90;;;;;;5137765;27;20038;-83
2023/03/07 05:29:56;;;;;;;9.00;1.90;;;2.90;99.90;;;;;;5137392;27;20114;-82
2023/03/07 05:32:21;;;;;;;12.20;3.10;;;2.50;99.90;;;;;;5137041;27;20035;-82
2023/03/07 05:34:47;;;;;;;8.40;2.35;;;2.60;99.90;;;;;;5155486;27;20046;-83
2023/03/07 05:37:13;;;;;;;6.97;1.60;;;2.50;99.90;;;;;;5136942;27;20079;-83
2023/03/07 05:39:38;;;;;;;6.05;1.45;;;2.50;99.90;;;;;;5155193;27;20087;-83
2023/03/07 05:42:04;;;;;;;6.70;2.13;;;3.00;99.90;;;;;;5136778;27;20038;-83
2023/03/07 05:44:30;;;;;;;8.68;1.80;;;2.50;99.90;;;;;;5137562;27;20038;-83
2023/03/07 05:46:56;;;;;;;7.10;1.92;;;2.60;99.90;;;;;;5155201;27;20042;-83
2023/03/07 05:49:23;;;;;;;6.30;1.50;;;2.60;99.90;;;;;;5155362;27;20474;-84
2023/03/07 05:51:49;;;;;;;3.35;1.50;;;2.50;99.90;;;;;;5136349;27;20542;-83
2023/03/07 05:54:15;;;;;;;8.48;1.90;;;2.50;99.90;;;;;;5136786;27;20134;-83
2023/03/07 05:56:40;;;;;;;9.60;2.13;;;2.50;99.90;;;;;;5155165;27;20466;-83
2023/03/07 05:59:06;;;;;;;12.10;2.00;;;2.60;99.90;;;;;;5136680;27;20039;-83
2023/03/07 06:01:33;;;;;;;5.55;1.92;;;2.50;99.90;;;;;;5154676;27;20039;-81
2023/03/07 06:03:59;;;;;;;7.53;2.10;;;2.60;99.90;;;;;;5136959;27;20044;-88
2023/03/07 06:06:24;;;;;;;7.50;1.83;;;3.80;99.90;;;;;;5119811;27;20520;-84
2023/03/07 06:08:51;;;;;;;4.75;1.83;;;2.60;99.90;;;;;;5136517;27;20042;-83
2023/03/07 06:11:16;;;;;;;7.72;2.35;;;2.50;99.90;;;;;;5154984;27;20043;-83
2023/03/07 06:13:42;;;;;;;4.47;1.40;;;2.60;99.90;;;;;;5155282;27;20092;-84
2023/03/07 06:16:08;;;;;;;10.27;1.92;;;2.60;99.90;;;;;;5136800;27;20442;-86
2023/03/07 06:18:33;;;;;;;8.88;1.73;;;2.60;99.90;;;;;;5136897;27;20086;-84
2023/03/07 06:21:07;;;;;;;8.30;2.15;;;2.60;99.90;;;;;;5157962;27;20034;-84
2023/03/07 06:23:35;;;;;;;6.82;2.03;;;2.60;99.90;;;;;;5158721;27;20062;-85
2023/03/07 06:26:02;;;;;;;7.22;1.83;;;3.30;99.90;;;;;;5140277;27;20497;-83
2023/03/07 06:28:28;;;;;;;5.30;1.77;;;2.70;99.90;;;;;;5158407;27;20042;-83
2023/03/07 06:30:54;;;;;;;6.53;1.70;;;2.60;99.90;;;;;;5158654;27;20070;-86
2023/03/07 06:33:19;;;;;;;7.20;2.00;;;2.70;99.90;;;;;;5158768;27;20095;-84
2023/03/07 06:35:45;;;;;;;9.15;2.22;;;2.60;99.90;;;;;;5139987;27;20042;-84
2023/03/07 06:38:13;;;;;;;6.43;1.52;;;2.60;99.90;;;;;;5122595;27;20196;-84
2023/03/07 06:40:39;;;;;;;8.57;1.80;;;2.70;99.90;;;;;;5158433;27;20086;-82
2023/03/07 06:43:05;;;;;;;7.25;1.80;;;2.70;99.90;;;;;;5158579;27;20121;-82
2023/03/07 06:45:31;;;;;;;6.63;2.00;;;3.00;99.90;;;;;;5122959;27;20371;-83
2023/03/07 06:47:56;;;;;;;7.65;2.10;;;2.70;99.90;;;;;;5139998;27;20092;-83
2023/03/07 06:50:22;;;;;;;10.98;1.77;;;2.70;99.90;;;;;;5139386;27;20129;-82
2023/03/07 06:52:50;;;;;;;7.18;1.88;;;2.70;99.90;;;;;;5158268;27;20039;-85
2023/03/07 06:55:19;;;;;;;3.30;1.48;;;2.70;99.90;;;;;;5123489;27;20478;-84
2023/03/07 06:57:45;;;;;;;5.93;1.80;;;2.80;99.90;;;;;;5139661;27;20046;-83
2023/03/07 07:00:11;;;;;;;7.43;2.20;;;2.80;99.90;;;;;;5139576;27;20042;-82
2023/03/07 07:02:37;;;;;;;4.13;1.50;;;2.80;99.90;;;;;;5157853;27;20046;-85
2023/03/07 07:05:04;;;;;;;5.97;1.63;;;2.80;99.90;;;;;;5158231;27;20384;-81
2023/03/07 07:07:30;;;;;;;4.10;1.35;;;2.80;99.90;;;;;;5157691;27;20474;-83
2023/03/07 07:09:55;;;;;;;4.18;1.40;;;2.80;99.90;;;;;;5157850;27;20394;-83
2023/03/07 07:12:21;;;;;;;3.28;1.48;;;2.80;99.90;;;;;;5157707;27;20039;-80
2023/03/07 07:14:47;;;;;;;6.82;1.80;;;2.80;99.90;;;;;;5139578;27;20060;-82
2023/03/07 07:17:13;;;;;;;5.35;1.73;;;2.90;99.90;;;;;;5139594;27;20053;-82
2023/03/07 07:19:38;;;;;;;5.68;1.60;;;2.80;99.90;;;;;;5157486;27;20045;-83
2023/03/07 07:22:07;;;;;;;6.47;1.80;;;2.90;99.90;;;;;;5157642;27;20039;-82
2023/03/07 07:24:33;;;;;;;5.75;1.73;;;2.90;99.90;;;;;;5158477;27;20087;-83
2023/03/07 07:26:58;;;;;;;2.65;1.50;;;2.90;99.90;;;;;;5156949;27;20047;-82
2023/03/07 07:29:24;;;;;;;6.05;2.10;;;3.10;99.90;;;;;;5158090;27;20050;-82
2023/03/07 07:31:50;;;;;;;5.37;1.40;;;2.80;99.90;;;;;;5121427;27;20058;-81
2023/03/07 07:34:16;;;;;;;5.35;1.70;;;2.80;99.90;;;;;;5157489;27;20043;-82
2023/03/07 07:36:41;;;;;;;4.63;1.50;;;2.80;99.90;;;;;;5138523;27;20397;-82
2023/03/07 07:39:07;;;;;;;10.13;2.28;;;3.10;99.90;;;;;;5157284;27;20092;-81
2023/03/07 07:41:33;;;;;;;5.03;1.50;;;2.80;99.90;;;;;;5157134;27;20063;-82
2023/03/07 07:43:59;;;;;;;4.47;1.50;;;2.80;99.90;;;;;;5157238;27;20069;-79
2023/03/07 07:46:27;;;;;;;10.88;1.98;;;2.80;99.90;;;;;;5157251;27;20382;-81
2023/03/07 07:48:54;;;;;;;6.25;1.80;;;2.80;99.90;;;;;;5157288;27;20063;-82
2023/03/07 07:51:19;;;;;;;3.72;1.60;;;2.80;99.90;;;;;;5139212;27;20062;-82
2023/03/07 07:53:45;;;;;;;6.50;1.60;;;2.80;99.90;;;;;;5157610;27;20042;-81
2023/03/07 07:56:11;;;;;;;5.05;1.65;;;2.80;99.90;;;;;;5157266;27;20043;-81
2023/03/07 07:58:37;;;;;;;6.68;2.03;;;2.90;99.90;;;;;;5157138;27;20085;-82
2023/03/07 08:01:22;;;;;;;4.93;1.55;;;2.80;99.90;;;;;;5121770;27;20085;-81
2023/03/07 08:03:48;;;;;;;8.25;1.80;;;;;;;;;;5138469;27;20138;-82
2023/03/07 08:06:25;;;;;;;7.13;2.08;;;2.90;99.90;;;;;;5138425;27;20084;-82
2023/03/07 08:08:51;;;;;;;4.20;1.52;;;2.90;99.90;;;;;;5138605;27;20046;-82
2023/03/07 08:11:17;;;;;;;3.15;1.30;;;3.90;99.90;;;;;;5138476;27;20379;-81
2023/03/07 08:13:43;;;;;;;6.45;2.70;;;2.90;99.90;;;;;;5156570;27;20047;-81
2023/03/07 08:16:15;;;;;;;9.10;2.03;;;2.90;99.90;;;;;;5138269;27;20082;-82
2023/03/07 08:18:42;;;;;;;3.80;1.73;;;2.90;99.90;;;;;;5157344;27;20046;-81
2023/03/07 08:21:08;;;;;;;3.90;1.60;;;3.80;99.90;;;;;;5156619;27;20043;-81
2023/03/07 08:23:35;;;;;;;3.35;1.42;;;2.80;99.90;;;;;;5156811;27;20095;-81
2023/03/07 08:26:05;;;;;;;7.35;2.10;;;3.60;99.90;;;;;;5156691;27;20085;-81
2023/03/07 08:28:31;;;;;;;6.22;1.42;;;2.90;99.90;;;;;;5156679;27;20038;-80
2023/03/07 08:30:57;;;;;;;5.65;1.83;;;2.80;99.90;;;;;;5156509;27;20046;-83
2023/03/07 08:33:22;;;;;;;6.88;2.05;;;2.80;99.90;;;;;;5138246;27;20386;-83
2023/03/07 08:35:48;;;;;;;2.75;1.35;;;2.80;99.90;;;;;;5138190;27;20046;-82
2023/03/07 08:38:13;;;;;;;6.25;1.83;;;2.80;99.90;;;;;;5138120;27;20046;-81
2023/03/07 08:40:39;;;;;;;8.57;1.70;;;2.80;99.90;;;;;;5156192;27;20050;-80
2023/03/07 08:43:05;;;;;;;6.13;1.73;;;2.80;99.90;;;;;;5155938;27;20090;-82
2023/03/07 08:45:31;;;;;;;4.72;1.50;;;2.80;99.90;;;;;;5155417;27;20034;-86
2023/03/07 08:47:56;;;;;;;5.47;1.30;;;2.80;99.90;;;;;;5137739;27;20039;-84
2023/03/07 08:50:25;;;;;;;3.80;1.40;;;3.00;99.90;;;;;;5120332;27;20051;-82
2023/03/07 08:52:50;;;;;;;6.45;1.60;;;2.90;99.90;;;;;;5137727;27;20133;-82
2023/03/07 08:55:16;;;;;;;6.78;1.92;;;2.90;99.90;;;;;;5137368;27;20530;-81
2023/03/07 08:57:44;;;;;;;8.40;1.70;;;2.90;99.90;;;;;;5137340;27;20466;-80
2023/03/07 09:00:11;;;;;;;3.28;1.50;;;3.00;99.90;;;;;;5120382;27;20058;-80
2023/03/07 09:02:36;;;;;;;;;;;3.00;99.90;;;;;;5156065;27;20078;-81
2023/03/07 09:05:02;;;;;;;6.45;1.67;;;2.90;99.90;;;;;;5155650;27;19964;-81
2023/03/07 09:07:28;;;;;;;4.53;1.52;;;2.90;99.90;;;;;;5155675;27;20087;-81
2023/03/07 09:09:54;;;;;;;3.63;1.48;;;2.90;99.90;;;;;;5155526;27;20395;-80
2023/03/07 09:12:19;;;;;;;6.72;1.83;;;3.00;99.90;;;;;;5155577;27;20473;-80
2023/03/07 09:14:45;;;;;;;8.25;1.92;;;3.00;99.90;;;;;;5136938;27;20074;-78
2023/03/07 09:17:10;;;;;;;5.13;1.60;;;3.10;99.90;;;;;;5120321;27;20035;-81
2023/03/07 09:19:36;;;;;;;3.60;1.75;;;3.10;99.90;;;;;;5120227;27;20070;-80
2023/03/07 09:22:02;;;;;;;5.47;1.85;;;3.20;99.90;;;;;;5155345;27;20038;-81
2023/03/07 09:24:28;;;;;;;6.80;1.95;;;4.20;99.90;;;;;;5137236;27;20136;-81
2023/03/07 09:26:54;;;;;;;4.97;1.60;;;3.50;99.90;;;;;;5131687;28;20054;-82
2023/03/07 09:29:19;;;;;;;2.67;1.38;;;3.50;99.90;;;;;;5128538;28;20047;-83
2023/03/07 09:31:45;;;;;;;9.02;1.70;;;4.30;99.90;;;;;;5134269;28;20079;-81
2023/03/07 09:34:11;;;;;;;4.93;1.88;;;3.70;99.90;;;;;;5116487;28;20470;-79
2023/03/07 09:36:37;;;;;;;5.45;1.70;;;3.70;99.90;;;;;;5116363;28;20047;-80
2023/03/07 09:39:03;;;;;;;5.03;1.67;;;3.70;99.90;;;;;;5134748;28;20046;-80
2023/03/07 09:41:32;;;;;;;5.05;2.53;;;3.70;99.90;;;;;;5134280;28;20050;-79
2023/03/07 09:44:07;;;;;;;4.75;1.50;;;3.80;99.90;;;;;;5134281;28;20051;-79
2023/03/07 09:47:02;;;;;;;5.28;1.70;;;3.80;99.90;;;;;;5134024;28;20500;-78
2023/03/07 09:49:41;;;;;;;4.68;1.75;;;3.90;99.90;;;;;;5116302;28;20070;-80
2023/03/07 09:52:15;;;;;;;8.23;1.73;;;3.90;99.90;;;;;;5116938;28;20383;-79
2023/03/07 09:54:58;;;;;;;9.20;1.63;;;4.00;99.90;;;;;;5135777;27;20425;-81
2023/03/07 09:57:50;;;;;;;2.15;1.30;;;3.90;99.90;;;;;;5139278;27;20043;-79
2023/03/07 10:00:32;;;;;;;3.53;1.50;;;4.00;99.90;;;;;;5129095;27;20471;-78
2023/03/07 10:03:03;;;;;;;4.18;1.65;;;4.00;99.90;;;;;;5138000;27;20039;-79
2023/03/07 10:05:40;;;;;;;4.88;1.58;;;4.10;99.90;;;;;;5138331;27;20122;-81
2023/03/07 10:08:12;;;;;;;6.85;1.50;;;4.10;99.90;;;;;;5138257;27;20051;-86
2023/03/07 10:10:47;;;;;;;4.40;1.52;;;4.20;99.90;;;;;;5102881;27;20500;-83
2023/03/07 10:13:46;;;;;;;4.72;1.42;;;4.30;99.90;;;;;;5137804;27;20031;-80
2023/03/07 10:16:34;;;;;;;3.58;1.48;;;4.50;99.90;;;;;;5138187;27;20097;-84
2023/03/07 10:19:44;;;;;;;12.13;2.25;;;4.60;99.90;;;;;;5137918;27;20086;-80
2023/03/07 10:22:27;;;;;;;2.15;1.40;;;4.60;99.90;;;;;;5091861;27;20062;-80
2023/03/07 10:25:25;;;;;;;6.45;1.45;;;4.60;99.90;;;;;;5119633;27;20049;-79
2023/03/07 10:27:59;;;;;;;5.22;1.40;;;4.60;99.90;;;;;;5091558;27;20054;-76
2023/03/07 10:30:24;;;;;;;4.57;1.40;;;4.50;99.90;;;;;;5137792;27;20046;-77
2023/03/07 10:32:58;;;;;;;4.10;1.42;;;4.50;99.90;;;;;;5137711;27;20482;-78
2023/03/07 10:35:42;;;;;;;2.97;1.75;;;4.20;99.90;;;;;;5137659;27;20083;-77
2023/03/07 10:38:25;;;;;;;7.15;1.45;;;3.80;99.90;;;;;;5137522;27;20402;-78
2023/03/07 10:41:00;;;;;;;5.10;1.70;;;3.50;99.90;;;;;;5137712;27;20086;-81
2023/03/07 10:43:31;;;;;;;4.85;1.50;;;3.30;99.90;;;;;;5137307;27;20052;-81
2023/03/07 10:46:17;;;;;;;6.93;2.25;;;3.20;99.90;;;;;;5137459;27;20108;-80
2023/03/07 10:48:47;;;;;;;5.50;1.85;;;3.00;99.90;;;;;;5136941;27;20051;-80
2023/03/07 10:51:45;;;;;;;5.10;1.80;;;3.10;99.90;;;;;;5137183;27;20039;-79
2023/03/07 10:54:18;;;;;;;5.20;1.80;;;3.00;99.90;;;;;;5119009;27;20047;-81
2023/03/07 10:57:17;;;;;;;4.38;1.40;;;3.20;99.90;;;;;;5118950;27;20051;-80
2023/03/07 10:59:47;;;;;;;6.70;1.80;;;3.30;99.90;;;;;;5091891;27;20055;-81
2023/03/07 11:02:27;;;;;;;3.50;1.98;;;3.30;99.90;;;;;;5137107;27;20047;-80
2023/03/07 11:04:53;;;;;;;2.75;1.90;;;3.40;99.90;;;;;;5118799;27;20397;-81
2023/03/07 11:07:27;;;;;;;6.65;1.90;;;3.50;99.90;;;;;;5117080;27;20092;-81
2023/03/07 11:09:54;;;;;;;5.80;1.70;;;3.70;99.90;;;;;;5136827;27;20164;-80
2023/03/07 11:12:22;;;;;;;4.88;1.65;;;3.80;99.90;;;;;;5136472;27;20506;-80
2023/03/07 11:14:58;;;;;;;3.92;1.52;;;4.00;99.90;;;;;;5136941;27;20092;-81
2023/03/07 11:17:30;;;;;;;8.27;1.98;;;4.20;99.90;;;;;;5136683;27;20035;-80
2023/03/07 11:19:56;;;;;;;3.75;1.90;;;4.30;99.90;;;;;;5136897;27;20125;-79
2023/03/07 11:22:35;;;;;;;2.42;1.30;;;4.40;99.90;;;;;;5136523;27;20053;-86
2023/03/07 11:25:20;;;;;;;1.80;1.35;;;4.60;99.90;;;;;;5136720;27;20054;-83
2023/03/07 11:27:56;;;;;;;3.22;1.50;;;4.70;99.90;;;;;;5136296;27;20064;-83
2023/03/07 11:30:34;;;;;;;2.40;1.45;;;4.90;99.90;;;;;;5128360;27;20042;-83
2023/03/07 11:33:26;;;;;;;3.15;1.40;;;4.80;99.90;;;;;;5136491;27;20050;-80
2023/03/07 11:36:01;;;;;;;3.35;1.33;;;5.00;99.90;;;;;;5136546;27;20126;-80
2023/03/07 11:38:56;;;;;;;4.05;1.50;;;5.00;99.90;;;;;;5136500;27;20039;-80
2023/03/07 11:41:34;;;;;;;2.03;1.35;;;5.50;99.90;;;;;;5133237;27;20088;-80
2023/03/07 11:44:18;;;;;;;4.43;1.40;;;5.30;99.90;;;;;;5119262;27;20051;-78
2023/03/07 11:47:00;;;;;;;8.65;1.77;;;5.40;99.90;;;;;;5136279;27;20459;-78
2023/03/07 11:49:59;;;;;;;6.32;2.00;;;5.70;99.90;;;;;;5136059;27;20051;-84
2023/03/07 11:52:44;;;;;;;3.58;1.60;;;5.60;99.90;;;;;;5117946;27;20092;-79
2023/03/07 11:55:29;;;;;;;4.07;1.40;;;5.60;99.90;;;;;;5135817;27;20053;-79
2023/03/07 11:58:09;;;;;;;6.55;1.58;;;5.70;99.90;;;;;;5135595;27;20099;-77
2023/03/07 12:00:43;;;;;;;8.18;1.98;;;5.80;99.90;;;;;;5135998;27;20043;-77
2023/03/07 12:03:18;;;;;;;5.88;1.52;;;5.90;99.90;;;;;;5135853;27;20409;-78
2023/03/07 12:06:17;;;;;;;5.50;1.67;;;6.00;99.90;;;;;;5135892;27;20042;-77
2023/03/07 12:08:50;;;;;;;10.38;1.92;;;6.20;99.90;;;;;;5135634;27;20482;-84
2023/03/07 12:11:25;;;;;;;7.75;1.60;;;6.20;99.90;;;;;;5135655;27;20047;-79
2023/03/07 12:14:21;;;;;;;5.03;1.30;;;6.20;99.90;;;;;;5135402;27;20475;-78
2023/03/07 12:17:34;;;;;;;2.50;1.08;;;6.10;99.90;;;;;;5135420;27;20085;-78
2023/03/07 12:20:47;;;;;;;1.85;0.90;;;5.50;99.90;;;;;;5052136;28;20492;-79
2023/03/07 12:23:32;;;;;;;3.10;1.20;;;4.60;99.90;;;;;;5124648;27;20139;-84
2023/03/07 12:26:02;;;;;;;5.35;1.50;;;4.10;99.90;;;;;;5121063;27;20078;-85
2023/03/07 12:28:41;;;;;;;5.15;1.67;;;3.70;99.90;;;;;;5154396;27;20490;-80
2023/03/07 12:31:31;;;;;;;7.00;1.92;;;3.30;99.90;;;;;;5154864;27;20121;-82
2023/03/07 12:34:09;;;;;;;7.70;1.50;;;3.60;99.90;;;;;;5155067;27;20134;-82
2023/03/07 12:36:43;;;;;;;3.85;1.60;;;2.80;99.90;;;;;;5156633;27;20038;-83
2023/03/07 12:39:35;;;;;;;4.35;1.80;;;2.70;99.90;;;;;;5156442;27;20047;-80
2023/03/07 12:42:08;;;;;;;10.10;1.70;;;2.60;99.90;;;;;;5156450;27;20038;-80
2023/03/07 12:44:51;;;;;;;8.40;1.75;;;2.60;99.90;;;;;;5156684;27;20397;-81
2023/03/07 12:47:38;;;;;;;6.05;1.50;;;2.60;99.90;;;;;;5156585;27;20046;-80
2023/03/07 12:50:16;;;;;;;5.90;1.70;;;2.70;99.90;;;;;;5155684;27;20195;-80
2023/03/07 12:52:46;;;;;;;8.50;1.83;;;2.70;99.90;;;;;;5155779;27;20057;-80
2023/03/07 12:55:38;;;;;;;7.35;1.98;;;2.70;99.90;;;;;;5120366;27;20042;-80
2023/03/07 12:58:23;;;;;;;4.30;1.75;;;3.60;99.90;;;;;;5155739;27;20079;-79
2023/03/07 13:01:02;;;;;;;8.50;2.45;;;2.70;99.90;;;;;;5154339;27;20493;-77
2023/03/07 13:04:05;;;;;;;5.32;1.80;;;2.80;99.90;;;;;;5154651;27;20045;-79
2023/03/07 13:06:32;;;;;;;8.20;1.95;;;2.80;99.90;;;;;;5157536;27;20385;-79
2023/03/07 13:08:59;;;;;;;;;;;2.90;99.90;;;;;;5157121;27;20393;-78
2023/03/07 13:11:32;;;;;;;10.27;2.38;;;3.00;99.90;;;;;;5154972;27;19940;-78
2023/03/07 13:14:04;;;;;;;4.38;1.85;;;3.10;99.90;;;;;;5156120;27;20042;-78